Overview Statistics Trail Chart Weather Telemetry Raw packets
 

This is the latest recevied weather packets stored in our database for station/object K5FEP. If no packets are shown the sender has not sent any weather packets the latest 10 day(s).

<< 26 27 28 29 30 31 32 >>
Time Temp. Humidity Pressure Rain* Wind** Luminosity Snow
1788459664 37.78° C 37% 1015.5 hPa 0 mm - 886 W/m² -
1788459362 37.22° C 39% 1015.6 hPa 0 mm - 883 W/m² -
1788459057 36.67° C 39% 1015.7 hPa 0 mm - 938 W/m² -
1788458752 36.67° C 38% 1015.7 hPa 0 mm - 938 W/m² -
1788458447 36.11° C 41% 1016.1 hPa 0 mm - 944 W/m² -
1788458146 36.11° C 43% 1016 hPa 0 mm - 263 W/m² -
1788457857 35.56° C 44% 1016.3 hPa 0 mm - 220 W/m² -
1788457540 35.56° C 42% 1016.1 hPa 0 mm - 216 W/m² -
1788457235 36.11° C 42% 1015.9 hPa 0 mm - 207 W/m² -
1788456930 36.67° C 40% 1016 hPa 0 mm - 213 W/m² -
1788456627 36.67° C 41% 1016.2 hPa 0 mm - 938 W/m² -
1788456320 36.67° C 40% 1016.1 hPa 0 mm - 935 W/m² -
1788456017 36.11° C 42% 1016.2 hPa 0 mm - 308 W/m² -
1788455717 36.67° C 42% 1016.2 hPa 0 mm - 264 W/m² -
1788455412 36.67° C 41% 1016.5 hPa 0 mm - 526 W/m² -
1788455111 36.67° C 41% 1016.4 hPa 0 mm - 984 W/m² -
1788454807 36.67° C 40% 1016.5 hPa 0 mm - 991 W/m² -
1788454504 36.67° C 41% 1016.4 hPa 0 mm - 467 W/m² -
1788454200 36.11° C 41% 1016.5 hPa 0 mm - 752 W/m² -
1788453895 36.67° C 41% 1016.6 hPa 0 mm - 960 W/m² -
1788453595 36.67° C 42% 1016.5 hPa 0 mm - 960 W/m² -
1788453290 37.22° C 40% 1016.8 hPa 0 mm - 936 W/m² -
1788452987 36.11° C 42% 1016.9 hPa 0 mm - 925 W/m² -
1788452683 36.11° C 42% 1016.9 hPa 0 mm - 907 W/m² -
1788452379 36.11° C 42% 1016.8 hPa 0 mm - 883 W/m² -

* Rain latest hour (hover to see other rain measurements)
** Current wind speed in m/s (hover to see current wind gust speed)